createdAt,value
2023-12-17T00:00:36.350Z,101948.61
2023-12-17T00:03:23.171Z,101947.35
2023-12-17T00:05:49.905Z,101959.14
2023-12-17T00:08:20.508Z,101966.60
2023-12-17T00:10:47.133Z,101956.80
2023-12-17T00:13:13.973Z,101956.08
2023-12-17T00:15:41.001Z,101963.70
2023-12-17T00:18:07.674Z,101942.92
2023-12-17T00:20:34.087Z,101937.52
2023-12-17T00:23:00.602Z,101929.65
2023-12-17T00:25:27.117Z,101923.69
2023-12-17T00:27:53.535Z,101923.66
2023-12-17T00:30:20.261Z,101928.70
2023-12-17T00:32:47.902Z,101930.58
2023-12-17T00:35:15.082Z,101936.48
2023-12-17T00:37:41.822Z,101949.36
2023-12-17T00:40:08.964Z,101954.91
2023-12-17T00:42:35.290Z,101955.93
2023-12-17T00:45:01.811Z,101960.80
2023-12-17T00:47:28.379Z,101964.98
2023-12-17T00:49:54.705Z,101955.02
2023-12-17T00:52:22.517Z,101947.15
2023-12-17T00:54:49.404Z,101946.29
2023-12-17T00:57:16.334Z,101937.75
2023-12-17T00:59:42.959Z,101940.71
2023-12-17T01:02:09.309Z,101940.19
2023-12-17T01:04:35.593Z,101945.95
2023-12-17T01:07:02.176Z,101949.61
2023-12-17T01:09:28.523Z,101934.80
2023-12-17T01:11:55.453Z,101923.66
2023-12-17T01:14:21.927Z,101920.17
2023-12-17T01:16:48.384Z,101921.76
2023-12-17T01:19:14.752Z,101926.13
2023-12-17T01:21:41.409Z,101938.67
2023-12-17T01:24:08.113Z,101948.61
2023-12-17T01:26:36.274Z,101927.88
2023-12-17T01:29:02.751Z,101924.04
2023-12-17T01:31:30.958Z,101924.21
2023-12-17T01:33:57.716Z,101923.01
2023-12-17T01:36:24.468Z,101916.92
2023-12-17T01:38:50.860Z,101919.02
2023-12-17T01:41:17.154Z,101914.67
2023-12-17T01:43:43.592Z,101920.44
2023-12-17T01:46:09.881Z,101908.62
2023-12-17T01:48:36.349Z,101913.67
2023-12-17T01:51:03.067Z,101931.64
2023-12-17T01:53:29.727Z,101933.73
2023-12-17T01:55:56.068Z,101934.27
2023-12-17T01:58:22.968Z,101925.92
2023-12-17T02:00:49.929Z,101929.08
2023-12-17T02:03:16.367Z,101925.95
2023-12-17T02:05:44.626Z,101916.38
2023-12-17T02:08:10.984Z,101919.52
2023-12-17T02:10:37.932Z,101911.69
2023-12-17T02:13:04.360Z,101913.96
2023-12-17T02:15:30.708Z,101925.48
2023-12-17T02:17:57.122Z,101927.24
2023-12-17T02:20:23.813Z,101944.31
2023-12-17T02:22:53.783Z,101949.21
2023-12-17T02:25:20.076Z,101944.53
2023-12-17T02:27:46.647Z,101944.73
2023-12-17T02:30:13.207Z,101956.75
2023-12-17T02:32:39.748Z,101958.35
2023-12-17T02:35:08.877Z,101955.23
2023-12-17T02:37:35.335Z,101952.64
2023-12-17T02:40:01.625Z,101954.05
2023-12-17T02:42:28.230Z,101944.84
2023-12-17T02:44:54.600Z,101943.98
2023-12-17T02:47:20.914Z,101938.97
2023-12-17T02:49:47.384Z,101939.50
2023-12-17T02:52:13.893Z,101936.41
2023-12-17T02:54:40.242Z,101938.00
2023-12-17T02:57:06.893Z,101925.11
2023-12-17T02:59:33.319Z,101921.13
2023-12-17T03:01:59.677Z,101922.89
2023-12-17T03:04:26.300Z,101917.86
2023-12-17T03:06:52.742Z,101918.42
2023-12-17T03:09:19.458Z,101926.83
2023-12-17T03:11:46.363Z,101928.96
2023-12-17T03:14:12.701Z,101931.80
2023-12-17T03:16:38.983Z,101920.02
2023-12-17T03:19:05.547Z,101927.04
2023-12-17T03:21:32.088Z,101927.23
2023-12-17T03:23:58.392Z,101917.16
2023-12-17T03:26:25.037Z,101905.35
2023-12-17T03:28:51.359Z,101911.64
2023-12-17T03:31:18.286Z,101914.30
2023-12-17T03:33:45.728Z,101911.02
2023-12-17T03:36:13.789Z,101918.02
2023-12-17T03:38:40.233Z,101907.80
2023-12-17T03:41:06.628Z,101908.38
2023-12-17T03:43:33.169Z,101909.83
2023-12-17T03:45:59.482Z,101910.91
2023-12-17T03:48:26.139Z,101907.28
2023-12-17T03:50:52.641Z,101908.72
2023-12-17T03:53:19.033Z,101915.34
2023-12-17T03:55:45.550Z,101912.91
2023-12-17T03:58:11.885Z,101915.36
2023-12-17T04:00:38.345Z,101911.18
2023-12-17T04:03:05.099Z,101909.96
2023-12-17T04:05:31.600Z,101908.75
2023-12-17T04:07:57.905Z,101910.86
2023-12-17T04:10:24.851Z,101923.74
2023-12-17T04:12:51.131Z,101924.98
2023-12-17T04:15:17.507Z,101927.77
2023-12-17T04:17:44.344Z,101927.27
2023-12-17T04:20:11.050Z,101934.20
2023-12-17T04:22:37.440Z,101935.23
2023-12-17T04:25:05.085Z,101936.98
2023-12-17T04:27:31.423Z,101938.16
2023-12-17T04:29:57.709Z,101936.23
2023-12-17T04:32:24.314Z,101929.98
2023-12-17T04:34:55.897Z,101925.60
2023-12-17T04:37:22.877Z,101926.64
2023-12-17T04:39:49.677Z,101926.11
2023-12-17T04:42:16.669Z,101914.10
2023-12-17T04:44:42.979Z,101912.17
2023-12-17T04:47:09.656Z,101902.42
2023-12-17T04:49:36.137Z,101904.00
2023-12-17T04:52:02.706Z,101908.36
2023-12-17T04:54:29.158Z,101914.45
2023-12-17T04:56:55.594Z,101919.52
2023-12-17T04:59:22.339Z,101918.83
2023-12-17T05:01:48.923Z,101918.32
2023-12-17T05:04:16.387Z,101913.98
2023-12-17T05:06:43.342Z,101912.27
2023-12-17T05:09:10.703Z,101906.37
2023-12-17T05:11:37.048Z,101908.30
2023-12-17T05:14:03.439Z,101918.92
2023-12-17T05:16:30.010Z,101920.33
2023-12-17T05:18:56.652Z,101925.56
2023-12-17T05:21:23.490Z,101927.46
2023-12-17T05:23:50.196Z,101926.61
2023-12-17T05:26:16.568Z,101931.82
2023-12-17T05:28:42.836Z,101927.65
2023-12-17T05:31:10.402Z,101930.06
2023-12-17T05:33:36.832Z,101934.74
2023-12-17T05:36:05.229Z,101934.55
2023-12-17T05:38:31.782Z,101942.90
2023-12-17T05:40:58.253Z,101949.84
2023-12-17T05:43:24.715Z,101943.36
2023-12-17T05:45:58.429Z,101944.40
2023-12-17T05:48:26.219Z,101949.26
2023-12-17T05:50:53.095Z,101952.73
2023-12-17T05:53:22.961Z,101953.57
2023-12-17T05:55:49.967Z,101946.94
2023-12-17T05:58:16.518Z,101943.98
2023-12-17T06:00:43.016Z,101937.36
2023-12-17T06:03:09.725Z,101943.11
2023-12-17T06:05:36.673Z,101939.81
2023-12-17T06:08:03.068Z,101942.95
2023-12-17T06:10:29.387Z,101942.41
2023-12-17T06:12:56.073Z,101936.67
2023-12-17T06:15:22.466Z,101935.27
2023-12-17T06:17:49.179Z,101934.75
2023-12-17T06:20:15.982Z,101938.59
2023-12-17T06:22:42.483Z,101942.75
2023-12-17T06:25:08.984Z,101958.59
2023-12-17T06:27:37.171Z,101953.54
2023-12-17T06:30:04.477Z,101952.15
2023-12-17T06:32:31.005Z,101957.70
2023-12-17T06:34:57.591Z,101962.90
2023-12-17T06:37:23.842Z,101953.84
2023-12-17T06:39:50.669Z,101963.37
2023-12-17T06:42:17.165Z,101965.61
2023-12-17T06:44:43.514Z,101955.68
2023-12-17T06:47:18.147Z,101969.41
2023-12-17T06:49:53.889Z,101969.39
2023-12-17T06:52:20.213Z,101984.68
2023-12-17T06:54:46.510Z,101976.34
2023-12-17T06:57:12.988Z,101968.13
2023-12-17T06:59:39.654Z,101984.66
2023-12-17T07:02:06.142Z,101990.90
2023-12-17T07:04:32.812Z,101994.73
2023-12-17T07:06:59.103Z,101996.48
2023-12-17T07:09:25.499Z,101991.27
2023-12-17T07:11:52.001Z,101984.65
2023-12-17T07:14:18.551Z,101983.61
2023-12-17T07:16:44.863Z,101992.14
2023-12-17T07:19:11.429Z,101993.70
2023-12-17T07:21:38.007Z,102004.48
2023-12-17T07:24:04.557Z,102005.02
2023-12-17T07:26:31.079Z,102006.23
2023-12-17T07:28:57.534Z,102007.63
2023-12-17T07:31:23.884Z,102013.02
2023-12-17T07:33:50.704Z,102008.48
2023-12-17T07:36:17.126Z,102013.72
2023-12-17T07:38:43.524Z,102020.51
2023-12-17T07:41:10.001Z,102025.54
2023-12-17T07:43:36.355Z,102022.40
2023-12-17T07:46:02.691Z,102022.93
2023-12-17T07:48:29.277Z,102014.93
2023-12-17T07:50:57.497Z,102027.10
2023-12-17T07:53:23.826Z,102022.04
2023-12-17T07:55:51.269Z,102023.27
2023-12-17T07:58:17.611Z,102026.38
2023-12-17T08:00:43.929Z,102024.09
2023-12-17T08:03:11.081Z,102027.92
2023-12-17T08:05:37.713Z,102034.52
2023-12-17T08:08:04.448Z,102040.42
2023-12-17T08:10:31.040Z,102049.83
2023-12-17T08:12:57.429Z,102046.37
2023-12-17T08:15:23.777Z,102044.96
2023-12-17T08:17:50.494Z,102052.78
2023-12-17T08:20:18.403Z,102051.23
2023-12-17T08:22:44.679Z,102052.29
2023-12-17T08:25:11.851Z,102036.27
2023-12-17T08:27:38.537Z,102030.20
2023-12-17T08:30:05.577Z,102044.83
2023-12-17T08:32:33.394Z,102032.31
2023-12-17T08:35:00.542Z,102039.27
2023-12-17T08:37:26.916Z,102036.66
2023-12-17T08:39:53.817Z,102047.96
2023-12-17T08:42:21.114Z,102044.13
2023-12-17T08:44:47.901Z,102039.45
2023-12-17T08:47:14.367Z,102036.65
2023-12-17T08:49:40.813Z,102047.09
2023-12-17T08:52:07.295Z,102045.52
2023-12-17T08:54:33.850Z,102050.02
2023-12-17T08:57:00.806Z,102049.33
2023-12-17T08:59:27.193Z,102028.95
2023-12-17T09:01:54.035Z,102039.38
2023-12-17T09:04:20.405Z,102054.17
2023-12-17T09:06:47.723Z,102037.64
2023-12-17T09:09:15.051Z,102045.63
2023-12-17T09:11:41.900Z,102036.23
2023-12-17T09:14:08.556Z,102038.50
2023-12-17T09:16:35.627Z,102038.67
2023-12-17T09:19:02.311Z,102025.79
2023-12-17T09:21:29.041Z,102026.48
2023-12-17T09:23:55.826Z,102023.33
2023-12-17T09:26:22.274Z,102023.16
2023-12-17T09:28:48.579Z,102024.21
2023-12-17T09:31:15.224Z,102022.47
2023-12-17T09:33:41.857Z,102026.48
2023-12-17T09:36:08.561Z,102026.12
2023-12-17T09:38:35.285Z,102024.38
2023-12-17T09:41:01.604Z,102016.52
2023-12-17T09:43:28.463Z,102022.09
2023-12-17T09:45:55.028Z,102019.80
2023-12-17T09:48:21.540Z,102022.58
2023-12-17T09:50:48.257Z,102026.39
2023-12-17T09:53:14.704Z,102014.72
2023-12-17T09:55:41.310Z,102019.22
2023-12-17T09:58:07.740Z,102020.09
2023-12-17T10:00:34.453Z,102021.83
2023-12-17T10:03:01.394Z,102020.60
2023-12-17T10:05:28.629Z,102016.23
2023-12-17T10:07:55.598Z,102012.58
2023-12-17T10:10:22.330Z,102025.63
2023-12-17T10:12:49.006Z,102013.11
2023-12-17T10:15:18.167Z,102002.14
2023-12-17T10:17:44.858Z,102001.80
2023-12-17T10:20:11.547Z,101998.11
2023-12-17T10:22:38.491Z,102004.85
2023-12-17T10:25:05.042Z,101991.50
2023-12-17T10:27:32.057Z,101991.52
2023-12-17T10:30:00.610Z,101983.27
2023-12-17T10:32:27.190Z,101973.23
2023-12-17T10:34:54.149Z,101991.48
2023-12-17T10:37:21.924Z,101976.30
2023-12-17T10:39:49.993Z,101972.81
2023-12-17T10:42:20.119Z,101967.07
2023-12-17T10:44:48.098Z,101966.02
2023-12-17T10:47:15.907Z,101967.58
2023-12-17T10:49:43.234Z,101972.63
2023-12-17T10:52:10.057Z,101955.17
2023-12-17T10:54:36.516Z,101952.48
2023-12-17T10:57:04.851Z,101947.56
2023-12-17T10:59:38.171Z,101952.92
2023-12-17T11:02:09.686Z,101943.81
2023-12-17T11:04:36.481Z,101959.64
2023-12-17T11:07:03.130Z,101947.77
2023-12-17T11:09:29.612Z,101948.09
2023-12-17T11:11:56.024Z,101968.30
2023-12-17T11:14:22.389Z,101957.82
2023-12-17T11:16:48.709Z,101958.84
2023-12-17T11:19:15.315Z,101952.02
2023-12-17T11:21:43.383Z,101950.94
2023-12-17T11:24:10.826Z,101963.95
2023-12-17T11:26:40.961Z,101955.74
2023-12-17T11:29:26.050Z,101938.60
2023-12-17T11:31:52.714Z,101944.99
2023-12-17T11:34:19.191Z,101944.58
2023-12-17T11:36:46.317Z,101944.92
2023-12-17T11:39:12.890Z,101943.04
2023-12-17T11:41:39.240Z,101952.67
2023-12-17T11:44:05.536Z,101932.84
2023-12-17T11:46:32.065Z,101919.23
2023-12-17T11:48:58.596Z,101932.27
2023-12-17T11:51:26.010Z,101924.36
2023-12-17T11:53:53.028Z,101914.33
2023-12-17T11:56:27.730Z,101916.49
2023-12-17T11:58:54.592Z,101906.66
2023-12-17T12:01:21.165Z,101898.38
2023-12-17T12:03:47.588Z,101898.44
2023-12-17T12:06:15.380Z,101900.63
2023-12-17T12:08:43.480Z,101902.61
2023-12-17T12:11:12.695Z,101898.29
2023-12-17T12:13:41.595Z,101893.23
2023-12-17T12:16:08.790Z,101887.52
2023-12-17T12:18:35.841Z,101886.71
2023-12-17T12:21:03.178Z,101888.98
2023-12-17T12:23:29.513Z,101890.77
2023-12-17T12:25:59.409Z,101875.48
2023-12-17T12:28:26.037Z,101868.56
2023-12-17T12:30:52.577Z,101860.52
2023-12-17T12:33:19.632Z,101856.05
2023-12-17T12:35:47.165Z,101853.39
2023-12-17T12:38:23.278Z,101848.25
2023-12-17T12:40:51.181Z,101851.45
2023-12-17T12:43:17.928Z,101849.09
2023-12-17T12:45:48.349Z,101837.75
2023-12-17T12:48:19.726Z,101825.52
2023-12-17T12:50:46.782Z,101824.79
2023-12-17T12:53:19.993Z,101821.63
2023-12-17T12:55:52.027Z,101820.97
2023-12-17T12:58:18.452Z,101822.38
2023-12-17T13:00:45.910Z,101829.20
2023-12-17T13:03:12.918Z,101830.41
2023-12-17T13:05:39.727Z,101826.69
2023-12-17T13:08:06.505Z,101815.08
2023-12-17T13:10:33.830Z,101821.52
2023-12-17T13:13:00.598Z,101829.45
2023-12-17T13:15:26.989Z,101840.10
2023-12-17T13:17:55.519Z,101832.75
2023-12-17T13:20:22.131Z,101843.08
2023-12-17T13:22:48.532Z,101839.77
2023-12-17T13:25:15.434Z,101837.34
2023-12-17T13:27:41.759Z,101833.52
2023-12-17T13:30:10.110Z,101831.84
2023-12-17T13:32:36.964Z,101837.77
2023-12-17T13:35:03.606Z,101844.20
2023-12-17T13:37:29.961Z,101837.48
2023-12-17T13:39:56.779Z,101835.38
2023-12-17T13:42:23.189Z,101828.73
2023-12-17T13:44:49.446Z,101828.24
2023-12-17T13:47:16.889Z,101832.66
2023-12-17T13:49:44.639Z,101832.55
2023-12-17T13:52:12.016Z,101832.26
2023-12-17T13:54:38.676Z,101827.41
2023-12-17T13:57:05.464Z,101826.58
2023-12-17T13:59:31.798Z,101817.05
2023-12-17T14:01:58.418Z,101812.05
2023-12-17T14:04:25.534Z,101802.13
2023-12-17T14:06:52.227Z,101796.59
2023-12-17T14:09:18.997Z,101789.69
2023-12-17T14:11:45.369Z,101794.13
2023-12-17T14:14:11.954Z,101800.13
2023-12-17T14:16:40.107Z,101803.75
2023-12-17T14:19:07.290Z,101810.15
2023-12-17T14:21:36.683Z,101806.95
2023-12-17T14:24:03.356Z,101802.20
2023-12-17T14:26:29.761Z,101801.96
2023-12-17T14:28:56.077Z,101788.68
2023-12-17T14:31:34.416Z,101792.80
2023-12-17T14:34:05.030Z,101797.47
2023-12-17T14:36:36.624Z,101799.52
2023-12-17T14:39:03.046Z,101802.97
2023-12-17T14:41:30.477Z,101802.77
2023-12-17T14:43:57.261Z,101799.60
2023-12-17T14:46:23.529Z,101797.14
2023-12-17T14:48:50.162Z,101802.34
2023-12-17T14:51:18.537Z,101805.07
2023-12-17T14:53:50.306Z,101801.17
2023-12-17T14:56:22.541Z,101798.00
2023-12-17T14:58:48.827Z,101797.38
2023-12-17T15:01:21.418Z,101798.33
2023-12-17T15:03:54.955Z,101797.05
2023-12-17T15:06:22.929Z,101797.17
2023-12-17T15:08:49.524Z,101797.96
2023-12-17T15:11:16.342Z,101804.48
2023-12-17T15:13:42.724Z,101802.65
2023-12-17T15:16:09.138Z,101805.34
2023-12-17T15:18:36.772Z,101805.23
2023-12-17T15:21:03.398Z,101803.56
2023-12-17T15:23:30.120Z,101803.32
2023-12-17T15:25:56.737Z,101801.86
2023-12-17T15:28:23.806Z,101802.45
2023-12-17T15:30:50.227Z,101802.52
2023-12-17T15:33:16.974Z,101802.08
2023-12-17T15:35:45.180Z,101809.42
2023-12-17T15:38:11.493Z,101807.73
2023-12-17T15:40:39.968Z,101801.16
2023-12-17T15:43:07.007Z,101795.27
2023-12-17T15:45:35.333Z,101795.13
2023-12-17T15:48:02.421Z,101796.03
2023-12-17T15:50:29.374Z,101788.23
2023-12-17T15:52:55.718Z,101781.63
2023-12-17T15:55:22.224Z,101776.94
2023-12-17T15:57:51.199Z,101777.46
2023-12-17T16:00:19.048Z,101779.91
2023-12-17T16:02:46.683Z,101783.22
2023-12-17T16:05:13.808Z,101780.45
2023-12-17T16:07:46.877Z,101783.60
2023-12-17T16:10:13.497Z,101785.34
2023-12-17T16:12:40.178Z,101786.75
2023-12-17T16:15:06.906Z,101785.71
2023-12-17T16:17:33.533Z,101781.71
2023-12-17T16:20:00.726Z,101778.77
2023-12-17T16:22:29.172Z,101780.70
2023-12-17T16:24:55.616Z,101777.41
2023-12-17T16:27:21.948Z,101778.64
2023-12-17T16:29:48.332Z,101779.36
2023-12-17T16:32:15.076Z,101775.05
2023-12-17T16:34:42.050Z,101772.97
2023-12-17T16:37:08.349Z,101771.61
2023-12-17T16:39:35.138Z,101768.14
2023-12-17T16:42:01.461Z,101777.54
2023-12-17T16:44:29.322Z,101777.53
2023-12-17T16:46:55.809Z,101769.17
2023-12-17T16:49:22.132Z,101768.11
2023-12-17T16:51:48.439Z,101768.28
2023-12-17T16:54:15.058Z,101769.67
2023-12-17T16:56:42.278Z,101771.40
2023-12-17T16:59:08.625Z,101768.80
2023-12-17T17:01:35.723Z,101766.03
2023-12-17T17:04:02.225Z,101760.11
2023-12-17T17:06:28.579Z,101756.84
2023-12-17T17:08:55.086Z,101752.36
2023-12-17T17:11:21.812Z,101746.48
2023-12-17T17:13:48.378Z,101738.86
2023-12-17T17:16:14.954Z,101736.11
2023-12-17T17:18:41.347Z,101737.19
2023-12-17T17:21:09.353Z,101728.34
2023-12-17T17:23:36.001Z,101727.48
2023-12-17T17:26:02.276Z,101729.21
2023-12-17T17:28:28.725Z,101731.67
2023-12-17T17:30:56.219Z,101732.38
2023-12-17T17:33:23.309Z,101732.21
2023-12-17T17:35:50.049Z,101729.98
2023-12-17T17:38:16.687Z,101734.17
2023-12-17T17:40:43.045Z,101736.48
2023-12-17T17:43:09.406Z,101735.45
2023-12-17T17:45:36.270Z,101730.42
2023-12-17T17:48:02.931Z,101725.58
2023-12-17T17:50:29.379Z,101720.71
2023-12-17T17:52:56.046Z,101718.13
2023-12-17T17:55:22.466Z,101712.08
2023-12-17T17:57:48.756Z,101716.64
2023-12-17T18:00:15.534Z,101715.98
2023-12-17T18:02:42.603Z,101718.96
2023-12-17T18:05:09.244Z,101721.25
2023-12-17T18:07:35.884Z,101725.80
2023-12-17T18:10:02.248Z,101724.06
2023-12-17T18:12:28.697Z,101722.35
2023-12-17T18:14:55.541Z,101715.73
2023-12-17T18:17:21.940Z,101715.05
2023-12-17T18:19:48.335Z,101716.60
2023-12-17T18:22:15.125Z,101712.27
2023-12-17T18:24:41.425Z,101704.25
2023-12-17T18:27:07.864Z,101709.64
2023-12-17T18:29:35.039Z,101705.82
2023-12-17T18:32:01.329Z,101702.19
2023-12-17T18:34:28.838Z,101695.77
2023-12-17T18:36:55.627Z,101696.84
2023-12-17T18:39:22.067Z,101693.52
2023-12-17T18:41:48.438Z,101692.13
2023-12-17T18:44:15.409Z,101691.48
2023-12-17T18:46:41.817Z,101688.68
2023-12-17T18:49:08.161Z,101689.55
2023-12-17T18:51:37.778Z,101689.91
2023-12-17T18:54:04.135Z,101690.95
2023-12-17T18:56:30.423Z,101700.36
2023-12-17T18:58:56.960Z,101699.67
2023-12-17T19:01:23.276Z,101695.48
2023-12-17T19:03:49.656Z,101691.85
2023-12-17T19:06:20.986Z,101689.59
2023-12-17T19:08:47.467Z,101690.30
2023-12-17T19:11:14.213Z,101692.02
2023-12-17T19:13:40.721Z,101694.82
2023-12-17T19:16:08.578Z,101689.77
2023-12-17T19:18:36.668Z,101686.81
2023-12-17T19:21:03.584Z,101692.20
2023-12-17T19:23:29.939Z,101691.70
2023-12-17T19:25:56.200Z,101689.08
2023-12-17T19:28:22.854Z,101688.91
2023-12-17T19:30:49.398Z,101683.16
2023-12-17T19:33:16.087Z,101687.67
2023-12-17T19:35:42.926Z,101685.55
2023-12-17T19:38:09.277Z,101688.30
2023-12-17T19:40:35.571Z,101684.80
2023-12-17T19:43:02.244Z,101679.03
2023-12-17T19:45:28.591Z,101681.10
2023-12-17T19:47:54.903Z,101684.20
2023-12-17T19:50:23.274Z,101681.56
2023-12-17T19:52:49.582Z,101682.75
2023-12-17T19:55:15.986Z,101679.94
2023-12-17T19:57:42.988Z,101673.31
2023-12-17T20:00:09.645Z,101671.55
2023-12-17T20:02:38.641Z,101672.40
2023-12-17T20:05:06.028Z,101670.63
2023-12-17T20:07:32.350Z,101673.39
2023-12-17T20:09:58.765Z,101670.39
2023-12-17T20:12:26.099Z,101669.48
2023-12-17T20:14:52.471Z,101670.86
2023-12-17T20:17:18.771Z,101673.61
2023-12-17T20:19:46.324Z,101672.40
2023-12-17T20:22:12.625Z,101674.30
2023-12-17T20:24:38.942Z,101670.83
2023-12-17T20:27:05.487Z,101676.39
2023-12-17T20:29:31.768Z,101679.36
2023-12-17T20:31:58.059Z,101676.08
2023-12-17T20:34:24.811Z,101675.73
2023-12-17T20:36:51.155Z,101670.70
2023-12-17T20:39:17.474Z,101670.70
2023-12-17T20:41:44.200Z,101662.70
2023-12-17T20:44:10.506Z,101656.81
2023-12-17T20:46:36.904Z,101657.52
2023-12-17T20:49:04.092Z,101654.75
2023-12-17T20:51:30.557Z,101652.65
2023-12-17T20:53:56.958Z,101646.59
2023-12-17T20:56:23.695Z,101644.18
2023-12-17T20:58:52.376Z,101640.53
2023-12-17T21:01:18.762Z,101633.23
2023-12-17T21:03:45.622Z,101630.11
2023-12-17T21:06:12.343Z,101626.28
2023-12-17T21:08:38.654Z,101626.63
2023-12-17T21:11:05.182Z,101625.23
2023-12-17T21:13:31.518Z,101628.73
2023-12-17T21:15:57.804Z,101629.96
2023-12-17T21:18:24.723Z,101626.48
2023-12-17T21:20:51.143Z,101620.05
2023-12-17T21:23:17.468Z,101616.08
2023-12-17T21:25:45.781Z,101610.17
2023-12-17T21:28:12.469Z,101613.64
2023-12-17T21:30:38.864Z,101620.08
2023-12-17T21:33:07.479Z,101620.77
2023-12-17T21:35:36.944Z,101626.15
2023-12-17T21:38:03.869Z,101627.54
2023-12-17T21:40:30.593Z,101632.06
2023-12-17T21:42:56.897Z,101631.89
2023-12-17T21:45:23.291Z,101629.65
2023-12-17T21:47:51.882Z,101624.44
2023-12-17T21:50:20.577Z,101622.20
2023-12-17T21:52:49.132Z,101617.71
2023-12-17T21:55:15.710Z,101617.55
2023-12-17T21:57:43.906Z,101617.77
2023-12-17T22:00:15.305Z,101613.80
2023-12-17T22:02:42.327Z,101616.44
2023-12-17T22:05:09.036Z,101619.05
2023-12-17T22:07:35.621Z,101616.80
2023-12-17T22:10:02.328Z,101618.19
2023-12-17T22:12:28.838Z,101617.34
2023-12-17T22:14:55.235Z,101622.05
2023-12-17T22:17:21.680Z,101623.09
2023-12-17T22:19:48.113Z,101621.02
2023-12-17T22:22:14.476Z,101618.06
2023-12-17T22:24:41.605Z,101609.56
2023-12-17T22:27:07.921Z,101606.61
2023-12-17T22:29:34.230Z,101602.98
2023-12-17T22:32:00.822Z,101591.89
2023-12-17T22:34:27.335Z,101598.00
2023-12-17T22:36:53.614Z,101596.27
2023-12-17T22:39:20.020Z,101599.94
2023-12-17T22:41:46.361Z,101594.91
2023-12-17T22:44:12.668Z,101599.95
2023-12-17T22:46:41.076Z,101594.23
2023-12-17T22:49:07.518Z,101598.41
2023-12-17T22:51:33.990Z,101604.34
2023-12-17T22:54:00.639Z,101603.31
2023-12-17T22:56:27.037Z,101599.70
2023-12-17T22:58:53.394Z,101597.27
2023-12-17T23:01:21.004Z,101598.52
2023-12-17T23:03:47.647Z,101606.17
2023-12-17T23:06:14.087Z,101608.10
2023-12-17T23:08:41.041Z,101613.33
2023-12-17T23:11:07.960Z,101607.94
2023-12-17T23:13:34.263Z,101606.94
2023-12-17T23:16:00.845Z,101609.21
2023-12-17T23:18:27.332Z,101611.31
2023-12-17T23:20:53.798Z,101603.85
2023-12-17T23:23:20.376Z,101599.52
2023-12-17T23:25:46.673Z,101599.88
2023-12-17T23:28:12.966Z,101598.48
2023-12-17T23:30:39.651Z,101592.77
2023-12-17T23:33:06.391Z,101595.00
2023-12-17T23:35:32.859Z,101592.42
2023-12-17T23:37:59.364Z,101588.94
2023-12-17T23:40:25.694Z,101588.24
2023-12-17T23:42:51.940Z,101591.72
2023-12-17T23:45:18.500Z,101589.45
2023-12-17T23:47:46.028Z,101585.80
2023-12-17T23:50:12.714Z,101586.32
2023-12-17T23:52:39.100Z,101581.11
2023-12-17T23:55:07.359Z,101577.79
2023-12-17T23:57:33.899Z,101572.77
